Kulu, Russia
Current Conditions -  °F | °C
As of 8:30 AM on Thursday 23 Oct 2014 (Local Time) from UHMM Reporting Station
Light Snow Light Snow  
Wind Chill: 18°   Ceiling: 1700
Heat Index: 18°   Visibility: 4mi
Dew Point: 16°   Wind: 2mph
Humidity: 93%   Direction: 330°NNW
Pressure: 29.29"   Gusts: NA
Location:  61.89°N, 147.45°E
Report Text: UHMM 222130Z 33001MPS 7000 -SN OVC017 M08/M09 Q0992 TEMPO 1000SHSN VV004 RMK QFE730 88490535 MT OBSC
Loading
Personal Weather Stations






























Interactive Weather Map
Tropical Storm Tracking
New forecast layout! Learn more

10-Day Weather Forecast

Advertisements
Track Severe Weather on mobile